sensor_id;sensor_type;location;lat;lon;timestamp;P1;durP1;ratioP1;P2;durP2;ratioP2
21418;SDS011;10870;51.384;10.316;2022-12-16T00:00:34;49.67;;;24.52;;
21418;SDS011;10870;51.384;10.316;2022-12-16T00:02:35;49.45;;;24.20;;
21418;SDS011;10870;51.384;10.316;2022-12-16T00:04:39;38.78;;;22.55;;
21418;SDS011;10870;51.384;10.316;2022-12-16T00:06:42;40.60;;;23.33;;
21418;SDS011;10870;51.384;10.316;2022-12-16T00:08:48;44.33;;;22.35;;
21418;SDS011;10870;51.384;10.316;2022-12-16T00:10:55;42.15;;;23.88;;
21418;SDS011;10870;51.384;10.316;2022-12-16T00:13:00;41.97;;;23.48;;
21418;SDS011;10870;51.384;10.316;2022-12-16T00:15:01;45.88;;;23.20;;
21418;SDS011;10870;51.384;10.316;2022-12-16T00:17:05;42.30;;;22.73;;
21418;SDS011;10870;51.384;10.316;2022-12-16T00:19:06;39.78;;;22.58;;
21418;SDS011;10870;51.384;10.316;2022-12-16T00:21:08;39.08;;;23.05;;
21418;SDS011;10870;51.384;10.316;2022-12-16T00:23:12;38.17;;;21.77;;
21418;SDS011;10870;51.384;10.316;2022-12-16T00:25:16;45.70;;;23.52;;
21418;SDS011;10870;51.384;10.316;2022-12-16T00:27:17;39.03;;;23.90;;
21418;SDS011;10870;51.384;10.316;2022-12-16T00:29:24;40.17;;;23.60;;
21418;SDS011;10870;51.384;10.316;2022-12-16T00:31:28;41.92;;;23.38;;
21418;SDS011;10870;51.384;10.316;2022-12-16T00:33:29;49.90;;;27.08;;
21418;SDS011;10870;51.384;10.316;2022-12-16T00:35:33;46.13;;;25.38;;
21418;SDS011;10870;51.384;10.316;2022-12-16T00:37:36;48.70;;;26.77;;
21418;SDS011;10870;51.384;10.316;2022-12-16T00:39:41;48.35;;;25.65;;
21418;SDS011;10870;51.384;10.316;2022-12-16T00:41:42;45.42;;;25.63;;
21418;SDS011;10870;51.384;10.316;2022-12-16T00:43:46;45.65;;;24.98;;
21418;SDS011;10870;51.384;10.316;2022-12-16T00:45:50;43.15;;;23.92;;
21418;SDS011;10870;51.384;10.316;2022-12-16T00:47:53;43.80;;;23.83;;
21418;SDS011;10870;51.384;10.316;2022-12-16T00:49:54;46.13;;;25.48;;
21418;SDS011;10870;51.384;10.316;2022-12-16T00:51:55;51.75;;;26.75;;
21418;SDS011;10870;51.384;10.316;2022-12-16T00:53:59;54.13;;;28.73;;
21418;SDS011;10870;51.384;10.316;2022-12-16T00:56:01;49.05;;;29.27;;
21418;SDS011;10870;51.384;10.316;2022-12-16T00:58:08;51.55;;;28.45;;
21418;SDS011;10870;51.384;10.316;2022-12-16T01:00:13;56.10;;;32.58;;
21418;SDS011;10870;51.384;10.316;2022-12-16T01:02:16;52.88;;;31.88;;
21418;SDS011;10870;51.384;10.316;2022-12-16T01:04:17;64.90;;;30.45;;
21418;SDS011;10870;51.384;10.316;2022-12-16T01:06:18;52.95;;;31.38;;
21418;SDS011;10870;51.384;10.316;2022-12-16T01:08:25;53.63;;;31.05;;
21418;SDS011;10870;51.384;10.316;2022-12-16T01:10:31;49.70;;;30.13;;
21418;SDS011;10870;51.384;10.316;2022-12-16T01:12:37;54.00;;;29.95;;
21418;SDS011;10870;51.384;10.316;2022-12-16T01:14:38;55.10;;;30.95;;
21418;SDS011;10870;51.384;10.316;2022-12-16T01:16:42;46.53;;;27.30;;
21418;SDS011;10870;51.384;10.316;2022-12-16T01:18:43;43.60;;;25.90;;
21418;SDS011;10870;51.384;10.316;2022-12-16T01:20:44;48.92;;;27.52;;
21418;SDS011;10870;51.384;10.316;2022-12-16T01:22:45;47.45;;;28.20;;
21418;SDS011;10870;51.384;10.316;2022-12-16T01:24:46;47.45;;;27.25;;
21418;SDS011;10870;51.384;10.316;2022-12-16T01:26:50;48.72;;;28.58;;
21418;SDS011;10870;51.384;10.316;2022-12-16T01:28:51;52.13;;;28.42;;
21418;SDS011;10870;51.384;10.316;2022-12-16T01:30:59;45.85;;;27.58;;
21418;SDS011;10870;51.384;10.316;2022-12-16T01:33:04;42.67;;;25.70;;
21418;SDS011;10870;51.384;10.316;2022-12-16T01:35:05;52.25;;;26.45;;
21418;SDS011;10870;51.384;10.316;2022-12-16T01:37:11;47.25;;;25.60;;
21418;SDS011;10870;51.384;10.316;2022-12-16T01:39:12;41.40;;;22.80;;
21418;SDS011;10870;51.384;10.316;2022-12-16T01:41:16;44.83;;;25.45;;
21418;SDS011;10870;51.384;10.316;2022-12-16T01:43:21;46.58;;;24.55;;
21418;SDS011;10870;51.384;10.316;2022-12-16T01:45:31;45.45;;;26.95;;
21418;SDS011;10870;51.384;10.316;2022-12-16T01:47:33;44.55;;;25.75;;
21418;SDS011;10870;51.384;10.316;2022-12-16T01:49:42;42.15;;;23.98;;
21418;SDS011;10870;51.384;10.316;2022-12-16T01:51:56;39.58;;;23.45;;
21418;SDS011;10870;51.384;10.316;2022-12-16T01:56:10;41.72;;;23.08;;
21418;SDS011;10870;51.384;10.316;2022-12-16T01:58:20;39.97;;;22.58;;
21418;SDS011;10870;51.384;10.316;2022-12-16T02:00:25;41.08;;;22.40;;
21418;SDS011;10870;51.384;10.316;2022-12-16T02:02:26;33.30;;;20.48;;
21418;SDS011;10870;51.384;10.316;2022-12-16T02:04:27;38.05;;;23.55;;
21418;SDS011;10870;51.384;10.316;2022-12-16T02:06:30;40.58;;;23.40;;
21418;SDS011;10870;51.384;10.316;2022-12-16T02:08:35;34.45;;;21.08;;
21418;SDS011;10870;51.384;10.316;2022-12-16T02:23:03;39.63;;;20.13;;
21418;SDS011;10870;51.384;10.316;2022-12-16T02:28:23;34.00;;;17.65;;
21418;SDS011;10870;51.384;10.316;2022-12-16T02:32:29;30.52;;;17.75;;
21418;SDS011;10870;51.384;10.316;2022-12-16T02:39:52;30.23;;;16.25;;
21418;SDS011;10870;51.384;10.316;2022-12-16T02:44:20;31.80;;;17.88;;
21418;SDS011;10870;51.384;10.316;2022-12-16T02:46:38;32.03;;;16.88;;
21418;SDS011;10870;51.384;10.316;2022-12-16T02:48:41;28.40;;;15.60;;
21418;SDS011;10870;51.384;10.316;2022-12-16T02:50:48;31.75;;;16.92;;
21418;SDS011;10870;51.384;10.316;2022-12-16T02:52:50;29.25;;;16.38;;
21418;SDS011;10870;51.384;10.316;2022-12-16T02:54:57;30.13;;;16.35;;
21418;SDS011;10870;51.384;10.316;2022-12-16T02:57:09;28.73;;;16.65;;
21418;SDS011;10870;51.384;10.316;2022-12-16T03:06:44;46.50;;;17.70;;
21418;SDS011;10870;51.384;10.316;2022-12-16T03:08:55;33.28;;;16.67;;
21418;SDS011;10870;51.384;10.316;2022-12-16T03:11:03;33.08;;;17.35;;
21418;SDS011;10870;51.384;10.316;2022-12-16T03:13:08;30.38;;;17.83;;
21418;SDS011;10870;51.384;10.316;2022-12-16T03:15:15;37.70;;;19.95;;
21418;SDS011;10870;51.384;10.316;2022-12-16T03:17:19;40.20;;;24.45;;
21418;SDS011;10870;51.384;10.316;2022-12-16T03:19:23;37.42;;;21.02;;
21418;SDS011;10870;51.384;10.316;2022-12-16T03:21:31;41.88;;;21.27;;
21418;SDS011;10870;51.384;10.316;2022-12-16T03:23:50;32.03;;;18.75;;
21418;SDS011;10870;51.384;10.316;2022-12-16T03:26:00;34.45;;;18.13;;
21418;SDS011;10870;51.384;10.316;2022-12-16T03:28:09;31.48;;;16.77;;
21418;SDS011;10870;51.384;10.316;2022-12-16T03:30:32;35.15;;;18.25;;
21418;SDS011;10870;51.384;10.316;2022-12-16T03:32:39;36.88;;;19.83;;
21418;SDS011;10870;51.384;10.316;2022-12-16T03:37:10;27.63;;;15.95;;
21418;SDS011;10870;51.384;10.316;2022-12-16T03:39:16;24.83;;;15.50;;
21418;SDS011;10870;51.384;10.316;2022-12-16T03:43:32;29.33;;;15.75;;
21418;SDS011;10870;51.384;10.316;2022-12-16T03:45:37;32.00;;;16.58;;
21418;SDS011;10870;51.384;10.316;2022-12-16T03:47:41;41.33;;;18.95;;
21418;SDS011;10870;51.384;10.316;2022-12-16T03:49:47;58.28;;;23.60;;
21418;SDS011;10870;51.384;10.316;2022-12-16T03:51:51;59.15;;;25.02;;
21418;SDS011;10870;51.384;10.316;2022-12-16T03:53:58;53.53;;;24.42;;
21418;SDS011;10870;51.384;10.316;2022-12-16T03:55:59;45.22;;;21.70;;
21418;SDS011;10870;51.384;10.316;2022-12-16T03:58:02;48.72;;;21.38;;
21418;SDS011;10870;51.384;10.316;2022-12-16T04:00:04;38.58;;;19.10;;
21418;SDS011;10870;51.384;10.316;2022-12-16T04:02:09;35.47;;;18.52;;
21418;SDS011;10870;51.384;10.316;2022-12-16T04:04:10;34.88;;;18.35;;
21418;SDS011;10870;51.384;10.316;2022-12-16T04:06:14;34.38;;;18.08;;
21418;SDS011;10870;51.384;10.316;2022-12-16T04:08:17;32.65;;;17.25;;
21418;SDS011;10870;51.384;10.316;2022-12-16T04:10:23;34.05;;;18.02;;
21418;SDS011;10870;51.384;10.316;2022-12-16T04:12:45;34.38;;;17.02;;
21418;SDS011;10870;51.384;10.316;2022-12-16T04:15:05;36.63;;;17.88;;
21418;SDS011;10870;51.384;10.316;2022-12-16T04:17:28;37.47;;;18.15;;
21418;SDS011;10870;51.384;10.316;2022-12-16T04:19:51;29.58;;;15.85;;
21418;SDS011;10870;51.384;10.316;2022-12-16T04:22:16;35.10;;;16.83;;
21418;SDS011;10870;51.384;10.316;2022-12-16T04:24:39;38.63;;;18.58;;
21418;SDS011;10870;51.384;10.316;2022-12-16T04:26:41;42.47;;;19.50;;
21418;SDS011;10870;51.384;10.316;2022-12-16T04:29:01;47.17;;;21.35;;
21418;SDS011;10870;51.384;10.316;2022-12-16T04:31:02;46.50;;;20.98;;
21418;SDS011;10870;51.384;10.316;2022-12-16T04:33:05;37.55;;;17.85;;
21418;SDS011;10870;51.384;10.316;2022-12-16T04:35:29;39.05;;;18.88;;
21418;SDS011;10870;51.384;10.316;2022-12-16T04:37:49;38.42;;;18.58;;
21418;SDS011;10870;51.384;10.316;2022-12-16T04:40:08;35.78;;;17.50;;
21418;SDS011;10870;51.384;10.316;2022-12-16T04:42:31;39.13;;;19.10;;
21418;SDS011;10870;51.384;10.316;2022-12-16T04:44:51;33.67;;;17.15;;
21418;SDS011;10870;51.384;10.316;2022-12-16T04:47:11;38.17;;;19.42;;
21418;SDS011;10870;51.384;10.316;2022-12-16T04:49:31;38.05;;;17.80;;
21418;SDS011;10870;51.384;10.316;2022-12-16T04:51:50;37.28;;;17.13;;
21418;SDS011;10870;51.384;10.316;2022-12-16T04:54:10;46.90;;;18.95;;
21418;SDS011;10870;51.384;10.316;2022-12-16T04:56:33;42.03;;;17.00;;
21418;SDS011;10870;51.384;10.316;2022-12-16T04:58:52;26.98;;;15.35;;
21418;SDS011;10870;51.384;10.316;2022-12-16T05:01:12;31.97;;;16.53;;
21418;SDS011;10870;51.384;10.316;2022-12-16T05:03:34;30.55;;;15.57;;
21418;SDS011;10870;51.384;10.316;2022-12-16T05:05:54;27.83;;;15.97;;
21418;SDS011;10870;51.384;10.316;2022-12-16T05:08:13;26.50;;;14.02;;
21418;SDS011;10870;51.384;10.316;2022-12-16T05:10:33;30.33;;;15.00;;
21418;SDS011;10870;51.384;10.316;2022-12-16T05:12:58;33.22;;;16.63;;
21418;SDS011;10870;51.384;10.316;2022-12-16T05:15:17;24.85;;;15.70;;
21418;SDS011;10870;51.384;10.316;2022-12-16T05:17:37;29.93;;;15.60;;
21418;SDS011;10870;51.384;10.316;2022-12-16T05:20:02;30.05;;;14.90;;
21418;SDS011;10870;51.384;10.316;2022-12-16T05:22:24;31.58;;;15.25;;
21418;SDS011;10870;51.384;10.316;2022-12-16T05:24:44;28.90;;;15.15;;
21418;SDS011;10870;51.384;10.316;2022-12-16T05:27:07;33.30;;;17.08;;
21418;SDS011;10870;51.384;10.316;2022-12-16T05:29:26;31.00;;;15.73;;
21418;SDS011;10870;51.384;10.316;2022-12-16T05:31:46;28.30;;;15.17;;
21418;SDS011;10870;51.384;10.316;2022-12-16T05:34:07;34.28;;;17.92;;
21418;SDS011;10870;51.384;10.316;2022-12-16T05:36:27;32.50;;;16.90;;
21418;SDS011;10870;51.384;10.316;2022-12-16T05:38:47;34.15;;;15.77;;
21418;SDS011;10870;51.384;10.316;2022-12-16T05:41:10;30.48;;;16.52;;
21418;SDS011;10870;51.384;10.316;2022-12-16T05:43:30;31.45;;;16.52;;
21418;SDS011;10870;51.384;10.316;2022-12-16T05:45:51;33.20;;;16.20;;
21418;SDS011;10870;51.384;10.316;2022-12-16T05:48:11;39.40;;;18.55;;
21418;SDS011;10870;51.384;10.316;2022-12-16T05:50:31;34.70;;;16.50;;
21418;SDS011;10870;51.384;10.316;2022-12-16T05:52:59;34.38;;;15.95;;
21418;SDS011;10870;51.384;10.316;2022-12-16T05:55:21;33.95;;;16.45;;
21418;SDS011;10870;51.384;10.316;2022-12-16T05:57:41;38.33;;;17.30;;
21418;SDS011;10870;51.384;10.316;2022-12-16T06:00:01;30.10;;;14.57;;
21418;SDS011;10870;51.384;10.316;2022-12-16T06:02:22;27.23;;;14.60;;
21418;SDS011;10870;51.384;10.316;2022-12-16T06:04:42;25.83;;;14.02;;
21418;SDS011;10870;51.384;10.316;2022-12-16T06:07:04;26.02;;;14.05;;
21418;SDS011;10870;51.384;10.316;2022-12-16T06:09:25;26.85;;;13.77;;
21418;SDS011;10870;51.384;10.316;2022-12-16T06:11:45;32.60;;;12.95;;
21418;SDS011;10870;51.384;10.316;2022-12-16T06:14:05;23.98;;;13.45;;
21418;SDS011;10870;51.384;10.316;2022-12-16T06:16:24;25.73;;;14.20;;
21418;SDS011;10870;51.384;10.316;2022-12-16T06:18:46;27.83;;;14.02;;
21418;SDS011;10870;51.384;10.316;2022-12-16T06:21:06;29.60;;;15.98;;
21418;SDS011;10870;51.384;10.316;2022-12-16T06:23:25;31.00;;;14.73;;
21418;SDS011;10870;51.384;10.316;2022-12-16T06:25:55;25.85;;;14.00;;
21418;SDS011;10870;51.384;10.316;2022-12-16T06:28:19;33.75;;;15.50;;
21418;SDS011;10870;51.384;10.316;2022-12-16T06:30:41;29.42;;;14.23;;
21418;SDS011;10870;51.384;10.316;2022-12-16T06:33:01;35.77;;;16.70;;
21418;SDS011;10870;51.384;10.316;2022-12-16T06:35:21;30.55;;;14.18;;
21418;SDS011;10870;51.384;10.316;2022-12-16T06:37:44;25.58;;;14.68;;
21418;SDS011;10870;51.384;10.316;2022-12-16T06:40:13;26.65;;;13.98;;
21418;SDS011;10870;51.384;10.316;2022-12-16T06:42:38;29.00;;;14.32;;
21418;SDS011;10870;51.384;10.316;2022-12-16T06:44:58;24.65;;;13.02;;
21418;SDS011;10870;51.384;10.316;2022-12-16T06:47:18;26.40;;;14.30;;
21418;SDS011;10870;51.384;10.316;2022-12-16T06:49:37;25.80;;;13.35;;
21418;SDS011;10870;51.384;10.316;2022-12-16T06:51:57;26.60;;;13.90;;
21418;SDS011;10870;51.384;10.316;2022-12-16T06:54:20;25.02;;;13.13;;
21418;SDS011;10870;51.384;10.316;2022-12-16T06:56:42;24.90;;;14.10;;
21418;SDS011;10870;51.384;10.316;2022-12-16T06:59:02;21.33;;;12.60;;
21418;SDS011;10870;51.384;10.316;2022-12-16T07:01:24;31.17;;;16.27;;
21418;SDS011;10870;51.384;10.316;2022-12-16T07:03:54;46.30;;;23.43;;
21418;SDS011;10870;51.384;10.316;2022-12-16T07:06:14;39.08;;;19.92;;
21418;SDS011;10870;51.384;10.316;2022-12-16T07:08:45;32.88;;;18.77;;
21418;SDS011;10870;51.384;10.316;2022-12-16T07:11:07;33.13;;;17.55;;
21418;SDS011;10870;51.384;10.316;2022-12-16T07:13:27;29.08;;;16.65;;
21418;SDS011;10870;51.384;10.316;2022-12-16T07:15:47;33.97;;;16.73;;
21418;SDS011;10870;51.384;10.316;2022-12-16T07:18:07;36.97;;;19.85;;
21418;SDS011;10870;51.384;10.316;2022-12-16T07:20:27;43.83;;;21.98;;
21418;SDS011;10870;51.384;10.316;2022-12-16T07:22:50;34.78;;;21.40;;
21418;SDS011;10870;51.384;10.316;2022-12-16T07:25:15;37.70;;;20.42;;
21418;SDS011;10870;51.384;10.316;2022-12-16T07:27:37;35.38;;;19.70;;
21418;SDS011;10870;51.384;10.316;2022-12-16T07:30:01;37.28;;;19.73;;
21418;SDS011;10870;51.384;10.316;2022-12-16T07:32:24;38.45;;;19.35;;
21418;SDS011;10870;51.384;10.316;2022-12-16T07:34:49;36.20;;;19.80;;
21418;SDS011;10870;51.384;10.316;2022-12-16T07:37:12;54.95;;;29.25;;
21418;SDS011;10870;51.384;10.316;2022-12-16T07:39:35;38.08;;;22.02;;
21418;SDS011;10870;51.384;10.316;2022-12-16T07:41:57;40.45;;;24.52;;
21418;SDS011;10870;51.384;10.316;2022-12-16T07:44:24;61.80;;;36.33;;
21418;SDS011;10870;51.384;10.316;2022-12-16T07:46:44;58.08;;;32.53;;
21418;SDS011;10870;51.384;10.316;2022-12-16T07:49:08;40.50;;;25.10;;
21418;SDS011;10870;51.384;10.316;2022-12-16T07:51:33;45.20;;;25.35;;
21418;SDS011;10870;51.384;10.316;2022-12-16T07:53:54;41.60;;;22.90;;
21418;SDS011;10870;51.384;10.316;2022-12-16T07:56:24;43.90;;;21.88;;
21418;SDS011;10870;51.384;10.316;2022-12-16T07:58:48;39.40;;;20.27;;
21418;SDS011;10870;51.384;10.316;2022-12-16T08:01:29;34.75;;;18.92;;
21418;SDS011;10870;51.384;10.316;2022-12-16T08:03:57;35.92;;;19.08;;
21418;SDS011;10870;51.384;10.316;2022-12-16T08:06:17;31.27;;;17.55;;
21418;SDS011;10870;51.384;10.316;2022-12-16T08:08:37;26.83;;;14.50;;
21418;SDS011;10870;51.384;10.316;2022-12-16T08:14:11;33.78;;;15.77;;
21418;SDS011;10870;51.384;10.316;2022-12-16T08:16:44;35.20;;;16.67;;
21418;SDS011;10870;51.384;10.316;2022-12-16T08:19:04;38.45;;;17.20;;
21418;SDS011;10870;51.384;10.316;2022-12-16T08:21:29;22.98;;;12.75;;
21418;SDS011;10870;51.384;10.316;2022-12-16T08:23:54;34.22;;;15.70;;
21418;SDS011;10870;51.384;10.316;2022-12-16T08:26:24;34.10;;;17.00;;
21418;SDS011;10870;51.384;10.316;2022-12-16T08:28:59;32.72;;;17.27;;
21418;SDS011;10870;51.384;10.316;2022-12-16T08:31:22;37.30;;;17.55;;
21418;SDS011;10870;51.384;10.316;2022-12-16T08:33:42;32.78;;;16.65;;
21418;SDS011;10870;51.384;10.316;2022-12-16T08:36:19;33.53;;;17.10;;
21418;SDS011;10870;51.384;10.316;2022-12-16T08:38:41;34.67;;;17.13;;
21418;SDS011;10870;51.384;10.316;2022-12-16T08:41:01;33.63;;;16.27;;
21418;SDS011;10870;51.384;10.316;2022-12-16T08:43:26;29.80;;;16.33;;
21418;SDS011;10870;51.384;10.316;2022-12-16T08:45:51;34.00;;;17.02;;
21418;SDS011;10870;51.384;10.316;2022-12-16T08:48:33;32.45;;;16.80;;
21418;SDS011;10870;51.384;10.316;2022-12-16T08:50:53;37.63;;;18.95;;
21418;SDS011;10870;51.384;10.316;2022-12-16T08:53:15;45.65;;;27.30;;
21418;SDS011;10870;51.384;10.316;2022-12-16T08:55:34;50.08;;;30.65;;
21418;SDS011;10870;51.384;10.316;2022-12-16T08:58:01;54.70;;;32.97;;
21418;SDS011;10870;51.384;10.316;2022-12-16T09:00:23;69.20;;;40.15;;
21418;SDS011;10870;51.384;10.316;2022-12-16T09:02:43;71.32;;;43.17;;
21418;SDS011;10870;51.384;10.316;2022-12-16T09:05:07;70.95;;;40.90;;
21418;SDS011;10870;51.384;10.316;2022-12-16T09:07:46;67.55;;;41.05;;
21418;SDS011;10870;51.384;10.316;2022-12-16T09:10:08;63.13;;;39.25;;
21418;SDS011;10870;51.384;10.316;2022-12-16T09:12:31;67.22;;;41.70;;
21418;SDS011;10870;51.384;10.316;2022-12-16T09:15:00;72.45;;;42.38;;
21418;SDS011;10870;51.384;10.316;2022-12-16T09:17:29;47.15;;;27.83;;
21418;SDS011;10870;51.384;10.316;2022-12-16T09:19:51;62.20;;;37.38;;
21418;SDS011;10870;51.384;10.316;2022-12-16T09:22:11;60.25;;;36.65;;
21418;SDS011;10870;51.384;10.316;2022-12-16T09:24:31;62.38;;;37.53;;
21418;SDS011;10870;51.384;10.316;2022-12-16T09:26:53;68.47;;;40.83;;
21418;SDS011;10870;51.384;10.316;2022-12-16T09:29:16;56.97;;;34.20;;
21418;SDS011;10870;51.384;10.316;2022-12-16T09:31:35;49.03;;;31.13;;
21418;SDS011;10870;51.384;10.316;2022-12-16T09:33:55;50.45;;;30.35;;
21418;SDS011;10870;51.384;10.316;2022-12-16T09:36:20;70.50;;;37.17;;
21418;SDS011;10870;51.384;10.316;2022-12-16T09:38:42;62.30;;;40.63;;
21418;SDS011;10870;51.384;10.316;2022-12-16T09:46:46;41.15;;;25.52;;
21418;SDS011;10870;51.384;10.316;2022-12-16T09:51:51;35.10;;;23.48;;
21418;SDS011;10870;51.384;10.316;2022-12-16T09:54:14;36.42;;;21.55;;
21418;SDS011;10870;51.384;10.316;2022-12-16T09:56:40;28.95;;;16.02;;
21418;SDS011;10870;51.384;10.316;2022-12-16T10:01:23;20.08;;;12.85;;
21418;SDS011;10870;51.384;10.316;2022-12-16T10:08:38;39.40;;;24.73;;
21418;SDS011;10870;51.384;10.316;2022-12-16T10:11:19;40.15;;;26.42;;
21418;SDS011;10870;51.384;10.316;2022-12-16T10:13:59;35.20;;;23.13;;
21418;SDS011;10870;51.384;10.316;2022-12-16T10:19:06;35.55;;;21.63;;
21418;SDS011;10870;51.384;10.316;2022-12-16T10:27:04;24.58;;;14.95;;
21418;SDS011;10870;51.384;10.316;2022-12-16T10:31:59;26.35;;;16.13;;
21418;SDS011;10870;51.384;10.316;2022-12-16T10:34:45;31.90;;;19.58;;
21418;SDS011;10870;51.384;10.316;2022-12-16T10:37:07;29.50;;;18.05;;
21418;SDS011;10870;51.384;10.316;2022-12-16T10:39:43;26.73;;;14.52;;
21418;SDS011;10870;51.384;10.316;2022-12-16T10:42:16;25.60;;;15.15;;
21418;SDS011;10870;51.384;10.316;2022-12-16T10:44:51;29.95;;;14.80;;
21418;SDS011;10870;51.384;10.316;2022-12-16T10:47:21;24.35;;;15.43;;
21418;SDS011;10870;51.384;10.316;2022-12-16T10:49:40;26.83;;;15.13;;
21418;SDS011;10870;51.384;10.316;2022-12-16T10:52:00;21.20;;;13.63;;
21418;SDS011;10870;51.384;10.316;2022-12-16T10:54:31;21.77;;;12.70;;
21418;SDS011;10870;51.384;10.316;2022-12-16T10:56:59;23.27;;;14.40;;
21418;SDS011;10870;51.384;10.316;2022-12-16T10:59:40;20.85;;;11.48;;
21418;SDS011;10870;51.384;10.316;2022-12-16T11:02:04;17.85;;;11.85;;
21418;SDS011;10870;51.384;10.316;2022-12-16T11:04:39;18.30;;;11.70;;
21418;SDS011;10870;51.384;10.316;2022-12-16T11:06:58;23.95;;;14.32;;
21418;SDS011;10870;51.384;10.316;2022-12-16T11:09:21;23.02;;;14.65;;
21418;SDS011;10870;51.384;10.316;2022-12-16T11:11:52;26.65;;;15.65;;
21418;SDS011;10870;51.384;10.316;2022-12-16T11:14:15;33.63;;;18.80;;
21418;SDS011;10870;51.384;10.316;2022-12-16T11:16:45;34.47;;;20.33;;
21418;SDS011;10870;51.384;10.316;2022-12-16T11:19:22;19.55;;;12.20;;
21418;SDS011;10870;51.384;10.316;2022-12-16T11:21:43;20.63;;;11.98;;
21418;SDS011;10870;51.384;10.316;2022-12-16T11:26:25;22.77;;;13.02;;
21418;SDS011;10870;51.384;10.316;2022-12-16T11:31:39;20.70;;;11.82;;
21418;SDS011;10870;51.384;10.316;2022-12-16T11:33:59;17.15;;;11.13;;
21418;SDS011;10870;51.384;10.316;2022-12-16T11:36:21;21.90;;;13.65;;
21418;SDS011;10870;51.384;10.316;2022-12-16T11:38:43;28.35;;;15.18;;
21418;SDS011;10870;51.384;10.316;2022-12-16T11:41:05;20.88;;;13.02;;
21418;SDS011;10870;51.384;10.316;2022-12-16T11:43:27;29.80;;;16.20;;
21418;SDS011;10870;51.384;10.316;2022-12-16T11:45:50;30.73;;;20.27;;
21418;SDS011;10870;51.384;10.316;2022-12-16T11:48:14;35.10;;;21.33;;
21418;SDS011;10870;51.384;10.316;2022-12-16T11:50:55;19.83;;;14.55;;
21418;SDS011;10870;51.384;10.316;2022-12-16T11:53:29;23.83;;;15.45;;
21418;SDS011;10870;51.384;10.316;2022-12-16T11:55:51;28.83;;;16.88;;
21418;SDS011;10870;51.384;10.316;2022-12-16T11:58:15;23.77;;;15.40;;
21418;SDS011;10870;51.384;10.316;2022-12-16T12:01:02;22.10;;;13.30;;
21418;SDS011;10870;51.384;10.316;2022-12-16T12:03:31;19.73;;;10.43;;
21418;SDS011;10870;51.384;10.316;2022-12-16T12:14:32;25.15;;;14.32;;
21418;SDS011;10870;51.384;10.316;2022-12-16T12:20:09;29.92;;;16.02;;
21418;SDS011;10870;51.384;10.316;2022-12-16T12:23:01;31.77;;;17.40;;
21418;SDS011;10870;51.384;10.316;2022-12-16T12:25:37;27.65;;;15.93;;
21418;SDS011;10870;51.384;10.316;2022-12-16T12:31:42;26.73;;;15.43;;
21418;SDS011;10870;51.384;10.316;2022-12-16T12:40:30;31.55;;;17.98;;
21418;SDS011;10870;51.384;10.316;2022-12-16T12:42:52;39.72;;;21.00;;
21418;SDS011;10870;51.384;10.316;2022-12-16T12:48:29;47.80;;;26.65;;
21418;SDS011;10870;51.384;10.316;2022-12-16T12:50:52;38.35;;;24.20;;
21418;SDS011;10870;51.384;10.316;2022-12-16T12:53:31;40.65;;;24.30;;
21418;SDS011;10870;51.384;10.316;2022-12-16T12:58:39;39.03;;;21.65;;
21418;SDS011;10870;51.384;10.316;2022-12-16T13:01:04;36.70;;;21.60;;
21418;SDS011;10870;51.384;10.316;2022-12-16T13:03:34;38.08;;;23.20;;
21418;SDS011;10870;51.384;10.316;2022-12-16T13:06:25;35.08;;;22.67;;
21418;SDS011;10870;51.384;10.316;2022-12-16T13:16:54;49.97;;;30.10;;
21418;SDS011;10870;51.384;10.316;2022-12-16T13:21:49;41.67;;;25.42;;
21418;SDS011;10870;51.384;10.316;2022-12-16T13:24:18;52.17;;;29.50;;
21418;SDS011;10870;51.384;10.316;2022-12-16T13:26:59;41.70;;;25.50;;
21418;SDS011;10870;51.384;10.316;2022-12-16T13:29:22;42.42;;;24.15;;
21418;SDS011;10870;51.384;10.316;2022-12-16T13:31:59;45.22;;;27.70;;
21418;SDS011;10870;51.384;10.316;2022-12-16T13:34:26;52.28;;;24.92;;
21418;SDS011;10870;51.384;10.316;2022-12-16T13:36:52;36.75;;;24.05;;
21418;SDS011;10870;51.384;10.316;2022-12-16T13:39:21;36.90;;;23.02;;
21418;SDS011;10870;51.384;10.316;2022-12-16T13:41:48;40.17;;;23.17;;
21418;SDS011;10870;51.384;10.316;2022-12-16T13:44:09;40.78;;;24.08;;
21418;SDS011;10870;51.384;10.316;2022-12-16T13:49:36;35.30;;;21.77;;
21418;SDS011;10870;51.384;10.316;2022-12-16T13:52:02;35.55;;;21.13;;
21418;SDS011;10870;51.384;10.316;2022-12-16T13:54:34;37.95;;;23.80;;
21418;SDS011;10870;51.384;10.316;2022-12-16T13:57:08;39.45;;;22.63;;
21418;SDS011;10870;51.384;10.316;2022-12-16T13:59:32;38.90;;;24.23;;
21418;SDS011;10870;51.384;10.316;2022-12-16T14:02:43;43.38;;;24.48;;
21418;SDS011;10870;51.384;10.316;2022-12-16T14:04:44;44.05;;;24.48;;
21418;SDS011;10870;51.384;10.316;2022-12-16T14:07:08;40.38;;;23.63;;
21418;SDS011;10870;51.384;10.316;2022-12-16T14:09:32;42.70;;;24.90;;
21418;SDS011;10870;51.384;10.316;2022-12-16T14:12:00;41.38;;;24.17;;
21418;SDS011;10870;51.384;10.316;2022-12-16T14:14:32;43.03;;;22.73;;
21418;SDS011;10870;51.384;10.316;2022-12-16T14:17:13;44.22;;;25.08;;
21418;SDS011;10870;51.384;10.316;2022-12-16T14:25:01;40.65;;;25.67;;
21418;SDS011;10870;51.384;10.316;2022-12-16T14:27:25;41.10;;;25.40;;
21418;SDS011;10870;51.384;10.316;2022-12-16T14:29:45;42.97;;;27.42;;
21418;SDS011;10870;51.384;10.316;2022-12-16T14:34:58;38.20;;;21.85;;
21418;SDS011;10870;51.384;10.316;2022-12-16T14:37:36;38.63;;;23.48;;
21418;SDS011;10870;51.384;10.316;2022-12-16T14:39:56;40.08;;;23.17;;
21418;SDS011;10870;51.384;10.316;2022-12-16T14:42:22;40.83;;;22.95;;
21418;SDS011;10870;51.384;10.316;2022-12-16T14:44:46;40.50;;;21.45;;
21418;SDS011;10870;51.384;10.316;2022-12-16T14:47:14;41.10;;;23.75;;
21418;SDS011;10870;51.384;10.316;2022-12-16T14:49:47;41.92;;;23.00;;
21418;SDS011;10870;51.384;10.316;2022-12-16T14:52:16;43.65;;;22.55;;
21418;SDS011;10870;51.384;10.316;2022-12-16T14:54:45;42.72;;;24.17;;
21418;SDS011;10870;51.384;10.316;2022-12-16T14:57:12;43.08;;;25.17;;
21418;SDS011;10870;51.384;10.316;2022-12-16T14:59:36;51.60;;;28.50;;
21418;SDS011;10870;51.384;10.316;2022-12-16T15:01:55;48.08;;;29.00;;
21418;SDS011;10870;51.384;10.316;2022-12-16T15:04:17;41.50;;;23.95;;
21418;SDS011;10870;51.384;10.316;2022-12-16T15:06:41;39.83;;;23.15;;
21418;SDS011;10870;51.384;10.316;2022-12-16T15:09:04;46.90;;;24.05;;
21418;SDS011;10870;51.384;10.316;2022-12-16T15:11:26;37.30;;;23.10;;
21418;SDS011;10870;51.384;10.316;2022-12-16T15:13:49;35.35;;;20.33;;
21418;SDS011;10870;51.384;10.316;2022-12-16T15:16:14;40.13;;;19.17;;
21418;SDS011;10870;51.384;10.316;2022-12-16T15:18:41;37.47;;;20.88;;
21418;SDS011;10870;51.384;10.316;2022-12-16T15:21:05;45.67;;;26.65;;
21418;SDS011;10870;51.384;10.316;2022-12-16T15:23:27;44.90;;;26.35;;